Time;durP1;ratioP1;P1;durP2;ratioP2;P2;SDS_P1;SDS_P2;PMS_P1;PMS_P2;Temp;Humidity;BMP_temperature;BMP_pressure;BME280_temperature;BME280_humidity;BME280_pressure;Samples;Min_cycle;Max_cycle;Signal;HPM_P1;HPM_P2
2022/09/26 00:01:22;;;;;;;0.10;0.10;;;;;;;;;;4903638;29;20071;-89
2022/09/26 00:03:49;;;;;;;0.10;0.10;;;;;;;;;;4919580;29;20048;-90
2022/09/26 00:06:16;;;;;;;0.10;0.10;;;;;;;;;;4918804;29;20088;-89
2022/09/26 00:08:43;;;;;;;0.10;0.10;;;;;;;;;;4919297;29;20047;-90
2022/09/26 00:11:09;;;;;;;0.10;0.10;;;;;;;;;;4903581;29;20075;-89
2022/09/26 00:13:36;;;;;;;0.10;0.10;;;;;;;;;;4919296;29;20044;-89
2022/09/26 00:16:02;;;;;;;0.10;0.10;;;;;;;;;;4919471;29;20188;-88
2022/09/26 00:18:28;;;;;;;0.10;0.10;;;;;;;;;;4903486;29;20475;-88
2022/09/26 00:20:54;;;;;;;0.10;0.10;;;;;;;;;;4919418;29;20084;-88
2022/09/26 00:23:20;;;;;;;0.10;0.10;;;;;;;;;;4919358;29;20131;-88
2022/09/26 00:25:49;;;;;;;0.10;0.10;;;;;;;;;;4903384;29;20036;-88
2022/09/26 00:28:15;;;;;;;0.20;0.20;;;;;;;;;;4918913;29;20078;-88
2022/09/26 00:30:43;;;;;;;0.10;0.10;;;;;;;;;;4902838;29;20451;-88
2022/09/26 00:33:09;;;;;;;0.10;0.10;;;;;;;;;;4903372;29;20385;-88
2022/09/26 00:35:35;;;;;;;0.10;0.10;;;;;;;;;;4903141;29;20046;-88
2022/09/26 00:38:01;;;;;;;0.10;0.10;;;;;;;;;;4902954;29;20044;-88
2022/09/26 00:40:27;;;;;;;0.10;0.10;;;;;;;;;;4918962;29;20086;-89
2022/09/26 00:42:54;;;;;;;0.10;0.10;;;;;;;;;;4903113;29;20448;-88
2022/09/26 00:45:20;;;;;;;0.10;0.10;;;;;;;;;;4918919;29;20090;-89
2022/09/26 00:47:47;;;;;;;0.10;0.10;;;;;;;;;;4918663;29;20149;-89
2022/09/26 00:50:15;;;;;;;0.10;0.10;;;;;;;;;;4902641;29;20182;-88
2022/09/26 00:52:43;;;;;;;0.10;0.10;;;;;;;;;;4902934;29;20043;-88
2022/09/26 00:55:10;;;;;;;0.10;0.10;;;;;;;;;;4902542;29;20048;-88
2022/09/26 00:57:44;;;;;;;0.10;0.10;;;;;;;;;;4887264;29;20504;-89
2022/09/26 01:00:10;;;;;;;0.10;0.10;;;;;;;;;;4918559;29;20047;-89
2022/09/26 01:02:36;;;;;;;0.10;0.10;;;;;;;;;;4902713;29;20083;-89
2022/09/26 01:05:03;;;;;;;0.10;0.10;;;;;;;;;;4918266;29;20048;-89
2022/09/26 01:07:28;;;;;;;0.10;0.10;;;;;;;;;;4902422;29;20075;-88
2022/09/26 01:09:56;;;;;;;0.10;0.10;;;;;;;;;;4902569;29;20043;-89
2022/09/26 01:12:22;;;;;;;0.10;0.10;;;;;;;;;;4902488;29;20044;-88
2022/09/26 01:14:48;;;;;;;0.20;0.20;;;;;;;;;;4902515;29;20066;-88
2022/09/26 01:17:14;;;;;;;0.10;0.10;;;;;;;;;;4917276;29;20036;-89
2022/09/26 01:19:45;;;;;;;0.10;0.10;;;;;;;;;;4918062;29;20131;-88
2022/09/26 01:22:14;;;;;;;0.10;0.10;;;;;;;;;;4918338;29;20126;-87
2022/09/26 01:24:58;;;;;;;0.10;0.10;;;;;;;;;;4902104;29;20116;-88
2022/09/26 01:27:30;;;;;;;0.10;0.10;;;;;;;;;;4918249;29;20420;-88
2022/09/26 01:29:56;;;;;;;0.10;0.10;;;;;;;;;;4917917;29;20075;-88
2022/09/26 01:32:48;;;;;;;0.10;0.10;;;;;;;;;;4902423;29;20043;-88
2022/09/26 01:35:20;;;;;;;0.10;0.10;;;;;;;;;;4896714;29;20063;-89
2022/09/26 01:37:54;;;;;;;0.10;0.10;;;;;;;;;;4917773;29;20051;-89
2022/09/26 01:40:30;;;;;;;0.10;0.10;;;;;;;;;;4902006;29;20087;-89
2022/09/26 01:43:02;;;;;;;0.20;0.20;;;;;;;;;;4902022;29;20047;-89
2022/09/26 01:45:31;;;;;;;0.10;0.10;;;;;;;;;;4917609;29;20452;-88
2022/09/26 01:48:03;;;;;;;0.10;0.10;;;;;;;;;;4902253;29;20431;-89
2022/09/26 01:50:42;;;;;;;0.17;0.17;;;;;;;;;;4917770;29;20046;-89
2022/09/26 01:53:22;;;;;;;0.10;0.10;;;;;;;;;;4901759;29;20062;-88
2022/09/26 01:55:49;;;;;;;0.10;0.10;;;;;;;;;;4917471;29;20055;-89
2022/09/26 01:58:18;;;;;;;0.10;0.10;;;;;;;;;;4902270;29;20076;-89
2022/09/26 02:00:44;;;;;;;0.10;0.10;;;;;;;;;;4902047;29;20046;-89
2022/09/26 02:03:12;;;;;;;0.10;0.10;;;;;;;;;;4901651;29;20075;-90
2022/09/26 02:05:39;;;;;;;0.10;0.10;;;;;;;;;;4901615;29;20043;-89
2022/09/26 02:08:06;;;;;;;0.10;0.10;;;;;;;;;;4901842;29;20050;-89
2022/09/26 02:10:48;;;;;;;0.10;0.10;;;;;;;;;;4901695;29;20040;-89
2022/09/26 02:13:16;;;;;;;0.10;0.10;;;;;;;;;;4917347;29;20032;-89
2022/09/26 02:15:42;;;;;;;0.10;0.10;;;;;;;;;;4901819;29;20047;-89
2022/09/26 02:18:16;;;;;;;0.10;0.10;;;;;;;;;;4917458;29;20043;-89
2022/09/26 02:20:44;;;;;;;0.10;0.10;;;;;;;;;;4917296;29;20035;-89
2022/09/26 02:23:10;;;;;;;0.10;0.10;;;;;;;;;;4917307;29;20364;-89
2022/09/26 02:25:36;;;;;;;0.10;0.10;;;;;;;;;;4917470;29;20039;-89
2022/09/26 02:28:02;;;;;;;0.10;0.10;;;;;;;;;;4903412;29;20047;-90
2022/09/26 02:30:28;;;;;;;0.10;0.10;;;;;;;;;;4921125;29;20044;-90
2022/09/26 02:32:54;;;;;;;0.10;0.10;;;;;;;;;;4905444;29;20082;-89
2022/09/26 02:38:05;;;;;;;0.10;0.10;;;;;;;;;;4921203;29;20044;-89
2022/09/26 02:40:35;;;;;;;0.10;0.10;;;;;;;;;;4921011;29;20039;-89
2022/09/26 02:43:12;;;;;;;0.10;0.10;;;;;;;;;;4905403;29;20504;-88
2022/09/26 02:45:41;;;;;;;0.10;0.10;;;;;;;;;;4920896;29;20087;-88
2022/09/26 02:48:17;;;;;;;0.10;0.10;;;;;;;;;;4904756;29;20518;-88
2022/09/26 02:50:57;;;;;;;0.10;0.10;;;;;;;;;;4905036;29;20043;-89
2022/09/26 02:53:26;;;;;;;0.10;0.10;;;;;;;;;;4904851;29;20130;-88
2022/09/26 02:55:52;;;;;;;0.10;0.10;;;;;;;;;;4904853;29;20448;-89
2022/09/26 02:58:26;;;;;;;0.10;0.10;;;;;;;;;;4904765;29;20050;-89
2022/09/26 03:00:59;;;;;;;0.10;0.10;;;;;;;;;;4904934;29;20039;-89
2022/09/26 03:03:25;;;;;;;;;;;;;;;;;;4905585;29;20048;-89
2022/09/26 03:05:51;;;;;;;0.10;0.10;;;;;;;;;;4904591;29;19925;-88
2022/09/26 03:08:19;;;;;;;0.10;0.10;;;;;;;;;;4904603;29;20044;-88
2022/09/26 03:10:45;;;;;;;0.10;0.10;;;;;;;;;;4920248;29;20047;-88
2022/09/26 03:13:12;;;;;;;0.10;0.10;;;;;;;;;;4904410;29;20065;-88
2022/09/26 03:15:39;;;;;;;0.10;0.10;;;;;;;;;;4920178;29;20102;-88
2022/09/26 03:18:06;;;;;;;0.10;0.10;;;;;;;;;;4920324;29;20039;-88
2022/09/26 03:20:32;;;;;;;0.10;0.10;;;;;;;;;;4920233;29;20047;-88
2022/09/26 03:22:58;;;;;;;0.10;0.10;;;;;;;;;;4904445;29;20062;-88
2022/09/26 03:25:24;;;;;;;0.10;0.10;;;;;;;;;;4920283;29;20043;-87
2022/09/26 03:27:51;;;;;;;0.10;0.10;;;;;;;;;;4904638;29;20059;-87
2022/09/26 03:30:17;;;;;;;0.10;0.10;;;;;;;;;;4919966;29;20119;-87
2022/09/26 03:32:43;;;;;;;0.10;0.10;;;;;;;;;;4904329;29;20044;-89
2022/09/26 03:35:09;;;;;;;0.10;0.10;;;;;;;;;;4904188;29;20456;-88
2022/09/26 03:37:36;;;;;;;0.10;0.10;;;;;;;;;;4904363;29;20036;-87
2022/09/26 03:40:06;;;;;;;0.10;0.10;;;;;;;;;;4918892;29;20106;-88
2022/09/26 03:42:34;;;;;;;0.10;0.10;;;;;;;;;;4904222;29;20051;-87
2022/09/26 03:45:01;;;;;;;0.10;0.10;;;;;;;;;;4919870;29;20043;-88
2022/09/26 03:47:27;;;;;;;0.10;0.10;;;;;;;;;;4919844;29;20043;-87
2022/09/26 03:49:53;;;;;;;0.20;0.20;;;;;;;;;;4903911;29;20492;-88
2022/09/26 03:52:19;;;;;;;0.10;0.10;;;;;;;;;;4904260;29;20061;-88
2022/09/26 03:54:45;;;;;;;0.10;0.10;;;;;;;;;;4903604;29;20056;-87
2022/09/26 03:57:12;;;;;;;0.10;0.10;;;;;;;;;;4903949;29;20074;-87
2022/09/26 03:59:38;;;;;;;0.10;0.10;;;;;;;;;;4903648;29;20487;-87
2022/09/26 04:02:04;;;;;;;0.20;0.20;;;;;;;;;;4903727;29;20060;-87
2022/09/26 04:04:31;;;;;;;0.20;0.20;;;;;;;;;;4919631;29;20423;-87
2022/09/26 04:06:57;;;;;;;0.10;0.10;;;;;;;;;;4919393;29;20091;-87
2022/09/26 04:09:23;;;;;;;0.10;0.10;;;;;;;;;;4919198;29;20048;-87
2022/09/26 04:11:49;;;;;;;0.10;0.10;;;;;;;;;;4919491;29;20095;-87
2022/09/26 04:14:16;;;;;;;0.10;0.10;;;;;;;;;;4903393;29;20078;-87
2022/09/26 04:16:42;;;;;;;0.10;0.10;;;;;;;;;;4919352;29;20043;-87
2022/09/26 04:19:08;;;;;;;0.10;0.10;;;;;;;;;;4919435;29;20050;-87
2022/09/26 04:21:34;;;;;;;0.10;0.10;;;;;;;;;;4919135;29;20071;-87
2022/09/26 04:24:01;;;;;;;0.10;0.10;;;;;;;;;;4918996;29;20051;-87
2022/09/26 04:26:27;;;;;;;0.10;0.10;;;;;;;;;;4918921;29;20051;-87
2022/09/26 04:28:54;;;;;;;0.10;0.10;;;;;;;;;;4919180;29;20459;-87
2022/09/26 04:31:20;;;;;;;0.10;0.10;;;;;;;;;;4918825;29;20036;-87
2022/09/26 04:33:46;;;;;;;0.10;0.10;;;;;;;;;;4919010;29;20461;-87
2022/09/26 04:36:13;;;;;;;0.10;0.10;;;;;;;;;;4903073;29;20094;-88
2022/09/26 04:38:39;;;;;;;0.10;0.10;;;;;;;;;;4903346;29;20470;-87
2022/09/26 04:41:06;;;;;;;0.10;0.10;;;;;;;;;;4918740;29;20039;-87
2022/09/26 04:43:32;;;;;;;0.10;0.10;;;;;;;;;;4918662;29;20472;-87
2022/09/26 04:45:58;;;;;;;0.10;0.10;;;;;;;;;;4918692;29;20039;-87
2022/09/26 04:48:24;;;;;;;0.10;0.10;;;;;;;;;;4902949;29;20134;-87
2022/09/26 04:50:50;;;;;;;0.10;0.10;;;;;;;;;;4918243;29;20079;-87
2022/09/26 04:53:18;;;;;;;0.45;0.45;;;;;;;;;;4918294;29;20110;-87
2022/09/26 04:55:47;;;;;;;0.10;0.10;;;;;;;;;;4918503;29;20495;-87
2022/09/26 04:58:14;;;;;;;0.17;0.17;;;;;;;;;;4902756;29;20044;-87
2022/09/26 05:00:48;;;;;;;0.10;0.10;;;;;;;;;;4918376;29;20124;-86
2022/09/26 05:03:14;;;;;;;0.10;0.10;;;;;;;;;;4918424;29;20043;-87
2022/09/26 05:05:42;;;;;;;0.10;0.10;;;;;;;;;;4918480;29;20428;-86
2022/09/26 05:08:09;;;;;;;0.10;0.10;;;;;;;;;;4902550;29;20040;-87
2022/09/26 05:10:35;;;;;;;0.10;0.10;;;;;;;;;;4902936;29;20043;-88
2022/09/26 05:13:02;;;;;;;0.10;0.10;;;;;;;;;;4918267;29;20131;-87
2022/09/26 05:15:28;;;;;;;0.38;0.30;;;;;;;;;;4918063;29;20142;-87
2022/09/26 05:17:58;;;;;;;0.15;0.15;;;;;;;;;;4918095;29;20050;-87
2022/09/26 05:20:27;;;;;;;0.28;0.28;;;;;;;;;;4902223;29;20039;-88
2022/09/26 05:22:56;;;;;;;0.10;0.10;;;;;;;;;;4902543;29;20040;-88
2022/09/26 05:28:07;;;;;;;0.10;0.10;;;;;;;;;;4918198;29;20048;-87
2022/09/26 05:30:34;;;;;;;0.10;0.10;;;;;;;;;;4902047;29;20047;-87
2022/09/26 05:33:00;;;;;;;0.10;0.10;;;;;;;;;;4918957;29;20075;-87
2022/09/26 05:35:26;;;;;;;0.30;0.30;;;;;;;;;;4918367;29;20098;-88
2022/09/26 05:37:59;;;;;;;0.10;0.10;;;;;;;;;;4902306;29;20043;-87
2022/09/26 05:43:10;;;;;;;0.10;0.10;;;;;;;;;;4917951;29;19958;-85
2022/09/26 05:45:36;;;;;;;0.30;0.30;;;;;;;;;;4918044;29;20551;-86
2022/09/26 05:48:02;;;;;;;0.10;0.10;;;;;;;;;;4902409;29;20039;-88
2022/09/26 05:50:28;;;;;;;0.10;0.10;;;;;;;;;;4902591;29;20058;-88
2022/09/26 05:53:00;;;;;;;0.10;0.10;;;;;;;;;;4917677;29;20495;-88
2022/09/26 05:55:26;;;;;;;0.10;0.10;;;;;;;;;;4901954;29;20541;-88
2022/09/26 05:57:53;;;;;;;0.10;0.10;;;;;;;;;;4902113;29;20044;-88
2022/09/26 06:00:19;;;;;;;0.10;0.10;;;;;;;;;;4917622;29;20039;-88
2022/09/26 06:02:45;;;;;;;0.22;0.22;;;;;;;;;;4904395;29;20039;-87
2022/09/26 06:05:11;;;;;;;0.65;0.20;;;;;;;;;;4924463;29;20044;-88
2022/09/26 06:07:37;;;;;;;0.10;0.10;;;;;;;;;;4924101;29;20055;-87
2022/09/26 06:10:06;;;;;;;0.10;0.10;;;;;;;;;;4908216;29;20046;-87
2022/09/26 06:12:34;;;;;;;0.10;0.10;;;;;;;;;;4908110;29;20047;-88
2022/09/26 06:15:00;;;;;;;0.10;0.10;;;;;;;;;;4908209;29;20411;-87
2022/09/26 06:17:26;;;;;;;0.10;0.10;;;;;;;;;;4924008;29;20054;-87
2022/09/26 06:19:52;;;;;;;0.10;0.10;;;;;;;;;;4924251;29;20035;-87
2022/09/26 06:22:18;;;;;;;0.20;0.20;;;;;;;;;;4924034;29;20550;-87
2022/09/26 06:24:44;;;;;;;0.20;0.20;;;;;;;;;;4923941;29;20428;-85
2022/09/26 06:27:10;;;;;;;0.20;0.20;;;;;;;;;;4908291;29;20126;-88
2022/09/26 06:29:37;;;;;;;0.52;0.30;;;;;;;;;;4924408;29;20040;-88
2022/09/26 06:32:03;;;;;;;0.10;0.10;;;;;;;;;;4923850;29;20130;-88
2022/09/26 06:34:29;;;;;;;0.28;0.20;;;;;;;;;;4923675;29;20051;-87
2022/09/26 06:36:55;;;;;;;0.10;0.10;;;;;;;;;;4923887;29;20039;-88
2022/09/26 06:39:21;;;;;;;0.10;0.10;;;;;;;;;;4908155;29;20039;-88
2022/09/26 06:41:46;;;;;;;0.20;0.20;;;;;;;;;;4908152;29;20091;-88
2022/09/26 06:44:13;;;;;;;0.10;0.10;;;;;;;;;;4923867;29;20046;-88
2022/09/26 06:46:39;;;;;;;0.20;0.20;;;;;;;;;;4907921;29;20086;-88
2022/09/26 06:49:05;;;;;;;0.10;0.10;;;;;;;;;;4907937;29;20087;-88
2022/09/26 06:51:36;;;;;;;0.10;0.10;;;;;;;;;;4908217;29;20130;-88
2022/09/26 06:54:02;;;;;;;0.10;0.10;;;;;;;;;;4923284;29;20059;-88
2022/09/26 06:56:28;;;;;;;0.20;0.20;;;;;;;;;;4907924;29;20043;-88
2022/09/26 06:58:54;;;;;;;0.38;0.38;;;;;;;;;;4907882;29;20472;-88
2022/09/26 07:01:20;;;;;;;0.10;0.10;;;;;;;;;;4907857;29;20039;-88
2022/09/26 07:03:46;;;;;;;0.10;0.10;;;;;;;;;;4907816;29;20048;-88
2022/09/26 07:06:14;;;;;;;0.10;0.10;;;;;;;;;;4923709;29;20081;-89
2022/09/26 07:08:40;;;;;;;0.10;0.10;;;;;;;;;;4923582;29;20040;-87
2022/09/26 07:11:06;;;;;;;0.10;0.10;;;;;;;;;;4908013;29;20046;-88
2022/09/26 07:13:35;;;;;;;0.10;0.10;;;;;;;;;;4923382;29;20043;-88
2022/09/26 07:16:01;;;;;;;0.25;0.25;;;;;;;;;;4903980;29;20499;-87
2022/09/26 07:18:27;;;;;;;0.10;0.10;;;;;;;;;;4920153;29;20126;-87
2022/09/26 07:20:53;;;;;;;0.10;0.10;;;;;;;;;;4919885;29;20051;-88
2022/09/26 07:23:19;;;;;;;0.10;0.10;;;;;;;;;;4888966;29;20099;-86
2022/09/26 07:25:45;;;;;;;0.10;0.10;;;;;;;;;;4920426;29;20040;-86
2022/09/26 07:28:11;;;;;;;0.10;0.10;;;;;;;;;;4904703;29;20051;-87
2022/09/26 07:30:39;;;;;;;0.13;0.13;;;;;;;;;;4904589;29;20127;-86
2022/09/26 07:33:05;;;;;;;0.10;0.10;;;;;;;;;;4904646;29;20129;-87
2022/09/26 07:35:31;;;;;;;0.10;0.10;;;;;;;;;;4888673;29;20188;-87
2022/09/26 07:37:57;;;;;;;0.20;0.20;;;;;;;;;;4904535;29;20038;-86
2022/09/26 07:40:24;;;;;;;0.10;0.10;;;;;;;;;;4904287;29;20483;-87
2022/09/26 07:42:51;;;;;;;0.15;0.15;;;;;;;;;;4904350;29;20095;-86
2022/09/26 07:50:09;;;;;;;0.10;0.10;;;;;;;;;;4904550;29;20055;-86
2022/09/26 07:50:48;;;;;;;0.30;0.30;;;;;;;;;;4919896;29;20043;-84
2022/09/26 07:53:14;;;;;;;2.38;2.28;;;;;;;;;;4904157;29;20495;-85
2022/09/26 07:56:04;;;;;;;0.10;0.10;;;;;;;;;;4903735;29;20079;-86
2022/09/26 07:58:26;;;;;;;0.10;0.10;;;;;;;;;;4906519;29;20050;-85
2022/09/26 08:00:52;;;;;;;0.10;0.10;;;;;;;;;;4904132;29;20506;-84
2022/09/26 08:03:19;;;;;;;0.28;0.28;;;;;;;;;;4919682;29;20127;-85
2022/09/26 08:05:45;;;;;;;0.10;0.10;;;;;;;;;;4919717;29;20052;-86
2022/09/26 08:08:12;;;;;;;0.20;0.20;;;;;;;;;;4888370;29;20066;-85
2022/09/26 08:10:37;;;;;;;0.20;0.20;;;;;;;;;;4919474;29;20102;-85
2022/09/26 08:13:03;;;;;;;0.10;0.10;;;;;;;;;;4903777;29;20398;-85
2022/09/26 08:15:29;;;;;;;0.10;0.10;;;;;;;;;;4919505;29;20048;-86
2022/09/26 08:17:55;;;;;;;0.10;0.10;;;;;;;;;;4919318;29;20035;-86
2022/09/26 08:20:21;;;;;;;0.10;0.10;;;;;;;;;;4903931;29;20048;-86
2022/09/26 08:22:47;;;;;;;0.60;0.60;;;;;;;;;;4918766;29;20046;-85
2022/09/26 08:25:13;;;;;;;0.20;0.20;;;;;;;;;;4903455;29;20078;-85
2022/09/26 08:27:42;;;;;;;0.10;0.10;;;;;;;;;;4903482;29;20514;-85
2022/09/26 08:30:09;;;;;;;0.10;0.10;;;;;;;;;;4888232;29;20127;-87
2022/09/26 08:32:36;;;;;;;0.10;0.10;;;;;;;;;;4919211;29;20055;-85
2022/09/26 08:35:02;;;;;;;0.10;0.10;;;;;;;;;;4903383;29;20126;-85
2022/09/26 08:37:28;;;;;;;0.10;0.10;;;;;;;;;;4903470;29;20078;-85
2022/09/26 08:39:54;;;;;;;0.10;0.10;;;;;;;;;;4919179;29;20567;-85
2022/09/26 08:42:31;;;;;;;0.10;0.10;;;;;;;;;;4903172;29;20119;-87
2022/09/26 08:46:12;;;;;;;0.10;0.10;;;;;;;;;;4887722;29;20052;-88
2022/09/26 08:47:49;;;;;;;0.20;0.20;;;;;;;;;;4918974;29;20047;-87
2022/09/26 08:50:19;;;;;;;0.10;0.10;;;;;;;;;;4887497;29;20043;-86
2022/09/26 08:52:47;;;;;;;0.10;0.10;;;;;;;;;;4903151;29;20051;-90
2022/09/26 08:55:18;;;;;;;0.20;0.20;;;;;;;;;;4887442;29;20054;-87
2022/09/26 08:57:47;;;;;;;0.10;0.10;;;;;;;;;;4902988;29;20067;-87
2022/09/26 09:00:18;;;;;;;0.10;0.10;;;;;;;;;;4886700;29;20054;-86
2022/09/26 09:03:03;;;;;;;0.10;0.10;;;;;;;;;;4902938;29;20070;-84
2022/09/26 09:05:31;;;;;;;0.10;0.10;;;;;;;;;;4903020;29;20047;-84
2022/09/26 09:07:58;;;;;;;0.10;0.10;;;;;;;;;;4903398;29;20395;-87
2022/09/26 09:10:41;;;;;;;0.10;0.10;;;;;;;;;;4902768;29;20053;-85
2022/09/26 09:13:14;;;;;;;0.10;0.10;;;;;;;;;;4887463;29;20047;-85
2022/09/26 09:15:47;;;;;;;0.13;0.13;;;;;;;;;;4902543;29;20051;-86
2022/09/26 09:18:32;;;;;;;0.10;0.10;;;;;;;;;;4902922;29;20390;-86
2022/09/26 09:21:13;;;;;;;0.10;0.10;;;;;;;;;;4886948;29;20071;-86
2022/09/26 09:23:51;;;;;;;0.35;0.22;;;;;;;;;;4902684;29;20075;-85
2022/09/26 09:26:33;;;;;;;0.20;0.20;;;;;;;;;;4914573;29;20040;-86
2022/09/26 09:29:31;;;;;;;0.20;0.20;;;;;;;;;;4918362;29;20483;-86
2022/09/26 09:31:57;;;;;;;0.20;0.20;;;;;;;;;;4882664;29;20051;-85
2022/09/26 09:34:25;;;;;;;0.10;0.10;;;;;;;;;;4902428;29;20490;-85
2022/09/26 09:36:52;;;;;;;0.10;0.10;;;;;;;;;;4902152;29;20575;-85
2022/09/26 09:39:24;;;;;;;0.25;0.25;;;;;;;;;;4918082;29;20390;-85
2022/09/26 09:41:51;;;;;;;0.10;0.10;;;;;;;;;;4902390;29;20049;-85
2022/09/26 09:44:16;;;;;;;0.10;0.10;;;;;;;;;;4902361;29;20059;-85
2022/09/26 09:46:42;;;;;;;0.10;0.10;;;;;;;;;;4933478;29;20040;-84
2022/09/26 09:49:08;;;;;;;0.10;0.10;;;;;;;;;;4902289;29;20047;-84
2022/09/26 09:51:39;;;;;;;0.10;0.10;;;;;;;;;;4933614;29;20062;-85
2022/09/26 09:54:28;;;;;;;0.10;0.10;;;;;;;;;;4903090;29;20074;-85
2022/09/26 09:56:58;;;;;;;0.10;0.10;;;;;;;;;;4906042;29;20107;-85
2022/09/26 09:59:30;;;;;;;0.20;0.20;;;;;;;;;;4917776;29;20044;-85
2022/09/26 10:02:17;;;;;;;0.25;0.20;;;;;;;;;;4889021;29;20039;-86
2022/09/26 10:04:45;;;;;;;0.10;0.10;;;;;;;;;;4902468;29;20063;-86
2022/09/26 10:07:11;;;;;;;0.10;0.10;;;;;;;;;;4933728;29;20047;-86
2022/09/26 10:09:38;;;;;;;0.17;0.17;;;;;;;;;;4902095;29;20043;-86
2022/09/26 10:12:15;;;;;;;0.10;0.10;;;;;;;;;;4902235;29;20519;-84
2022/09/26 10:15:01;;;;;;;0.10;0.10;;;;;;;;;;4933406;29;20040;-85
2022/09/26 10:17:28;;;;;;;0.20;0.20;;;;;;;;;;4902106;29;20044;-85
2022/09/26 10:19:54;;;;;;;0.20;0.20;;;;;;;;;;4886726;29;20043;-85
2022/09/26 10:22:31;;;;;;;0.10;0.10;;;;;;;;;;4901987;29;20483;-85
2022/09/26 10:25:08;;;;;;;0.10;0.10;;;;;;;;;;4933703;29;20047;-85
2022/09/26 10:27:38;;;;;;;0.10;0.10;;;;;;;;;;4902044;29;20075;-85
2022/09/26 10:30:19;;;;;;;0.10;0.10;;;;;;;;;;4902336;29;20391;-85
2022/09/26 10:32:47;;;;;;;0.10;0.10;;;;;;;;;;4917893;29;20055;-86
2022/09/26 10:35:17;;;;;;;0.10;0.10;;;;;;;;;;4888647;29;20035;-86
2022/09/26 10:37:43;;;;;;;0.10;0.10;;;;;;;;;;4939895;29;20036;-86
2022/09/26 10:43:29;;;;;;;1.08;0.30;;;;;;;;;;4923059;29;20063;-89
2022/09/26 10:45:59;;;;;;;0.10;0.10;;;;;;;;;;4910024;28;20042;-89
2022/09/26 10:48:27;;;;;;;0.20;0.20;;;;;;;;;;4957647;28;20067;-88
2022/09/26 10:50:54;;;;;;;0.10;0.10;;;;;;;;;;4893856;29;20047;-88
2022/09/26 10:53:23;;;;;;;0.10;0.10;;;;;;;;;;4901875;29;20100;-89
2022/09/26 10:55:52;;;;;;;0.10;0.10;;;;;;;;;;4917619;29;20119;-89
2022/09/26 10:58:21;;;;;;;0.10;0.10;;;;;;;;;;4902228;29;20131;-89
2022/09/26 11:00:50;;;;;;;0.20;0.20;;;;;;;;;;4917858;29;20436;-90
2022/09/26 11:03:21;;;;;;;0.10;0.10;;;;;;;;;;4886572;29;20059;-87
2022/09/26 11:05:56;;;;;;;0.10;0.10;;;;;;;;;;4901885;29;20303;-90
2022/09/26 11:08:26;;;;;;;0.20;0.20;;;;;;;;;;4887886;29;20048;-88
2022/09/26 11:10:52;;;;;;;0.10;0.10;;;;;;;;;;4886412;29;20040;-88
2022/09/26 11:13:19;;;;;;;0.10;0.10;;;;;;;;;;4886149;29;20400;-89
2022/09/26 11:15:52;;;;;;;0.10;0.10;;;;;;;;;;4886029;29;20044;-89
2022/09/26 11:18:24;;;;;;;0.10;0.10;;;;;;;;;;4901557;29;20099;-89
2022/09/26 11:20:50;;;;;;;0.28;0.20;;;;;;;;;;4884285;29;20519;-90
2022/09/26 11:23:21;;;;;;;0.10;0.10;;;;;;;;;;4886029;29;20047;-89
2022/09/26 11:26:05;;;;;;;1.95;0.30;;;;;;;;;;4886438;29;20079;-86
2022/09/26 11:28:35;;;;;;;0.10;0.10;;;;;;;;;;4886309;29;20044;-84
2022/09/26 11:31:04;;;;;;;0.10;0.10;;;;;;;;;;4901601;29;20048;-85
2022/09/26 11:33:30;;;;;;;0.20;0.20;;;;;;;;;;4901504;29;20048;-85
2022/09/26 11:36:03;;;;;;;0.10;0.10;;;;;;;;;;4901484;29;20403;-87
2022/09/26 11:38:37;;;;;;;0.10;0.10;;;;;;;;;;4901286;29;20088;-85
2022/09/26 11:41:06;;;;;;;0.15;0.15;;;;;;;;;;4916987;29;20098;-86
2022/09/26 11:43:37;;;;;;;0.10;0.10;;;;;;;;;;4901141;29;20092;-87
2022/09/26 11:46:13;;;;;;;0.10;0.10;;;;;;;;;;4885693;29;20099;-87
2022/09/26 11:49:02;;;;;;;0.38;0.10;;;;;;;;;;4900871;29;20465;-87
2022/09/26 11:51:30;;;;;;;0.10;0.10;;;;;;;;;;4875045;29;20087;-87
2022/09/26 11:54:10;;;;;;;0.10;0.10;;;;;;;;;;4916509;29;20060;-87
2022/09/26 11:56:42;;;;;;;0.10;0.10;;;;;;;;;;4916864;29;20091;-87
2022/09/26 11:59:18;;;;;;;0.10;0.10;;;;;;;;;;4916939;29;20388;-87
2022/09/26 12:01:54;;;;;;;0.10;0.10;;;;;;;;;;4884840;29;20040;-91
2022/09/26 12:04:23;;;;;;;0.20;0.20;;;;;;;;;;4901335;29;20048;-89
2022/09/26 12:06:55;;;;;;;0.10;0.10;;;;;;;;;;4916862;29;20044;-89
2022/09/26 12:09:46;;;;;;;0.10;0.10;;;;;;;;;;4916438;29;20484;-88
2022/09/26 12:12:15;;;;;;;0.10;0.10;;;;;;;;;;4900986;29;20048;-88
2022/09/26 12:15:01;;;;;;;0.10;0.10;;;;;;;;;;4900439;29;20055;-87
2022/09/26 12:17:46;;;;;;;0.20;0.20;;;;;;;;;;4900941;29;20040;-93
2022/09/26 12:20:14;;;;;;;0.10;0.10;;;;;;;;;;4900595;29;20047;-89
2022/09/26 12:22:46;;;;;;;0.10;0.10;;;;;;;;;;4900551;29;20047;-88
2022/09/26 12:25:26;;;;;;;0.28;0.28;;;;;;;;;;4900368;29;20108;-90
2022/09/26 12:28:06;;;;;;;0.10;0.10;;;;;;;;;;4900422;29;20044;-90
2022/09/26 12:30:53;;;;;;;0.10;0.10;;;;;;;;;;4900425;29;20144;-89
2022/09/26 12:33:19;;;;;;;0.20;0.20;;;;;;;;;;4900249;29;20066;-90
2022/09/26 12:35:48;;;;;;;1.40;0.25;;;;;;;;;;4900449;29;20055;-90
2022/09/26 12:38:14;;;;;;;0.10;0.10;;;;;;;;;;4899711;29;20071;-90
2022/09/26 12:41:03;;;;;;;0.10;0.10;;;;;;;;;;4899773;29;20040;-90
2022/09/26 12:43:32;;;;;;;0.17;0.17;;;;;;;;;;4884772;29;20050;-90
2022/09/26 12:46:05;;;;;;;0.10;0.10;;;;;;;;;;4884504;29;20103;-92
2022/09/26 12:48:50;;;;;;;0.10;0.10;;;;;;;;;;4899522;29;20047;-92
2022/09/26 12:51:21;;;;;;;0.10;0.10;;;;;;;;;;4900196;29;20055;-91
2022/09/26 12:53:56;;;;;;;0.10;0.10;;;;;;;;;;4915743;29;20408;-91
2022/09/26 12:56:29;;;;;;;0.10;0.10;;;;;;;;;;4899983;29;20082;-91
2022/09/26 12:59:03;;;;;;;0.10;0.10;;;;;;;;;;4899555;29;20135;-91
2022/09/26 13:01:42;;;;;;;0.30;0.30;;;;;;;;;;4900530;29;20044;-92
2022/09/26 13:04:19;;;;;;;0.20;0.20;;;;;;;;;;4884656;29;20078;-92
2022/09/26 13:06:55;;;;;;;0.10;0.10;;;;;;;;;;4884397;29;20392;-92
2022/09/26 13:09:25;;;;;;;0.10;0.10;;;;;;;;;;4899554;29;20371;-91
2022/09/26 13:12:17;;;;;;;0.13;0.13;;;;;;;;;;4883630;29;20134;-91
2022/09/26 13:14:54;;;;;;;0.10;0.10;;;;;;;;;;4900392;29;20452;-92
2022/09/26 13:17:24;;;;;;;0.15;0.15;;;;;;;;;;4884627;29;20040;-89
2022/09/26 13:19:56;;;;;;;0.10;0.10;;;;;;;;;;4899486;29;20051;-89
2022/09/26 13:22:26;;;;;;;0.10;0.10;;;;;;;;;;4899453;29;20121;-89
2022/09/26 13:25:06;;;;;;;0.15;0.15;;;;;;;;;;4884174;29;20044;-90
2022/09/26 13:27:38;;;;;;;0.10;0.10;;;;;;;;;;4884007;29;20099;-90
2022/09/26 13:30:13;;;;;;;0.10;0.10;;;;;;;;;;4883517;29;20099;-92
2022/09/26 13:32:57;;;;;;;0.10;0.10;;;;;;;;;;4899169;29;20044;-92
2022/09/26 13:35:24;;;;;;;0.10;0.10;;;;;;;;;;4914322;29;20118;-91
2022/09/26 13:37:53;;;;;;;0.22;0.22;;;;;;;;;;4883356;29;20040;-91
2022/09/26 13:40:21;;;;;;;0.10;0.10;;;;;;;;;;4898358;29;20052;-90
2022/09/26 13:42:55;;;;;;;0.10;0.10;;;;;;;;;;4898749;29;20139;-92
2022/09/26 13:45:21;;;;;;;0.10;0.10;;;;;;;;;;4883680;29;20511;-91
2022/09/26 13:47:51;;;;;;;0.10;0.10;;;;;;;;;;4914441;29;20040;-93
2022/09/26 13:50:17;;;;;;;0.10;0.10;;;;;;;;;;4899186;29;20142;-91
2022/09/26 13:52:51;;;;;;;0.10;0.10;;;;;;;;;;4900247;29;20044;-91
2022/09/26 13:55:20;;;;;;;0.10;0.10;;;;;;;;;;4918622;29;20048;-90
2022/09/26 13:57:50;;;;;;;0.10;0.10;;;;;;;;;;4902473;29;20044;-90
2022/09/26 14:00:29;;;;;;;0.10;0.10;;;;;;;;;;4918794;29;20047;-92
2022/09/26 14:03:15;;;;;;;0.10;0.10;;;;;;;;;;4902195;29;20506;-90
2022/09/26 14:05:40;;;;;;;0.10;0.10;;;;;;;;;;4902026;29;20570;-92
2022/09/26 14:11:31;;;;;;;0.20;0.20;;;;;;;;;;4917235;29;20495;-89
2022/09/26 14:14:16;;;;;;;0.10;0.10;;;;;;;;;;4901774;29;20054;-89
2022/09/26 14:16:42;;;;;;;0.10;0.10;;;;;;;;;;4901761;29;20075;-89
2022/09/26 14:19:09;;;;;;;0.10;0.10;;;;;;;;;;4901972;29;20131;-89
2022/09/26 14:21:36;;;;;;;0.10;0.10;;;;;;;;;;4901595;29;20046;-90
2022/09/26 14:24:20;;;;;;;0.10;0.10;;;;;;;;;;4903435;29;20044;-89
2022/09/26 14:26:50;;;;;;;0.10;0.10;;;;;;;;;;4905653;29;20083;-89
2022/09/26 14:29:30;;;;;;;0.10;0.10;;;;;;;;;;4905651;29;20075;-89
2022/09/26 14:32:03;;;;;;;0.10;0.10;;;;;;;;;;4921111;29;20085;-89
2022/09/26 14:34:49;;;;;;;0.10;0.10;;;;;;;;;;4905592;29;20469;-89
2022/09/26 14:37:24;;;;;;;0.10;0.10;;;;;;;;;;4898626;29;20047;-89
2022/09/26 14:39:59;;;;;;;0.10;0.10;;;;;;;;;;4907306;29;20046;-90
2022/09/26 14:42:33;;;;;;;0.10;0.10;;;;;;;;;;4921261;29;20427;-89
2022/09/26 14:45:00;;;;;;;0.10;0.10;;;;;;;;;;4905554;29;20082;-90
2022/09/26 14:47:27;;;;;;;0.10;0.10;;;;;;;;;;4921198;29;20059;-91
2022/09/26 14:50:04;;;;;;;0.10;0.10;;;;;;;;;;4905504;29;20502;-90
2022/09/26 14:52:34;;;;;;;0.10;0.10;;;;;;;;;;4907045;29;20092;-94
2022/09/26 14:55:04;;;;;;;0.10;0.10;;;;;;;;;;4918977;29;20106;-91
2022/09/26 14:57:31;;;;;;;0.10;0.10;;;;;;;;;;4904508;29;20107;-92
2022/09/26 14:59:58;;;;;;;0.10;0.10;;;;;;;;;;4888773;29;20047;-90
2022/09/26 15:02:30;;;;;;;0.10;0.10;;;;;;;;;;4903433;29;20055;-90
2022/09/26 15:05:31;;;;;;;0.10;0.10;;;;;;;;;;4889219;29;20373;-92
2022/09/26 15:07:59;;;;;;;0.10;0.10;;;;;;;;;;4860546;29;20049;-92
2022/09/26 15:10:34;;;;;;;0.10;0.10;;;;;;;;;;4891141;29;20048;-91
2022/09/26 15:13:11;;;;;;;0.10;0.10;;;;;;;;;;4904913;29;20054;-91
2022/09/26 15:15:50;;;;;;;0.10;0.10;;;;;;;;;;4904303;29;20063;-90
2022/09/26 15:18:26;;;;;;;0.10;0.10;;;;;;;;;;4889403;29;20134;-91